createdAt,value
2023-01-20T00:01:37.311Z,56.81
2023-01-20T00:03:41.066Z,57.00
2023-01-20T00:05:50.888Z,56.84
2023-01-20T00:07:52.460Z,56.81
2023-01-20T00:09:54.031Z,56.82
2023-01-20T00:11:55.629Z,56.75
2023-01-20T00:13:59.605Z,57.04
2023-01-20T00:16:02.316Z,56.96
2023-01-20T00:18:04.083Z,56.52
2023-01-20T00:20:08.488Z,56.45
2023-01-20T00:22:10.028Z,56.68
2023-01-20T00:24:11.751Z,56.39
2023-01-20T00:26:15.300Z,57.44
2023-01-20T00:28:17.145Z,58.07
2023-01-20T00:30:18.989Z,57.75
2023-01-20T00:32:20.746Z,58.23
2023-01-20T00:34:22.333Z,58.40
2023-01-20T00:36:26.927Z,57.19
2023-01-20T00:38:28.512Z,56.84
2023-01-20T00:40:30.143Z,56.56
2023-01-20T00:42:32.459Z,56.94
2023-01-20T00:44:33.919Z,56.82
2023-01-20T00:46:35.626Z,56.53
2023-01-20T00:48:37.811Z,56.95
2023-01-20T00:50:39.308Z,56.99
2023-01-20T00:52:42.340Z,57.09
2023-01-20T00:54:43.877Z,56.87
2023-01-20T00:56:45.730Z,56.90
2023-01-20T00:58:47.329Z,56.67
2023-01-20T01:00:50.193Z,56.79
2023-01-20T01:02:54.853Z,56.87
2023-01-20T01:04:56.577Z,57.50
2023-01-20T01:06:58.223Z,58.36
2023-01-20T01:09:01.310Z,57.94
2023-01-20T01:11:03.889Z,57.72
2023-01-20T01:13:06.403Z,57.54
2023-01-20T01:15:09.219Z,57.04
2023-01-20T01:17:10.864Z,56.98
2023-01-20T01:19:12.496Z,57.02
2023-01-20T01:21:16.839Z,56.69
2023-01-20T01:23:18.436Z,56.26
2023-01-20T01:25:21.659Z,56.43
2023-01-20T01:27:23.329Z,56.24
2023-01-20T01:29:25.023Z,56.52
2023-01-20T01:31:26.607Z,57.12
2023-01-20T01:33:28.245Z,57.70
2023-01-20T01:35:29.821Z,57.67
2023-01-20T01:37:31.398Z,56.86
2023-01-20T01:39:32.922Z,57.29
2023-01-20T01:41:35.956Z,57.88
2023-01-20T01:43:38.606Z,58.23
2023-01-20T01:45:40.133Z,57.56
2023-01-20T01:47:49.138Z,57.25
2023-01-20T01:49:51.567Z,57.66
2023-01-20T01:51:58.462Z,57.34
2023-01-20T01:54:05.072Z,57.08
2023-01-20T01:56:07.611Z,58.22
2023-01-20T01:58:16.547Z,58.02
2023-01-20T02:00:18.581Z,58.02
2023-01-20T02:02:24.026Z,57.57
2023-01-20T02:04:27.537Z,57.79
2023-01-20T02:06:32.688Z,57.12
2023-01-20T02:08:34.891Z,56.84
2023-01-20T02:10:36.416Z,56.89
2023-01-20T02:12:38.503Z,56.92
2023-01-20T02:14:45.975Z,56.74
2023-01-20T02:16:58.986Z,56.99
2023-01-20T02:19:20.404Z,57.01
2023-01-20T02:21:49.534Z,56.05
2023-01-20T02:24:23.274Z,56.50
2023-01-20T02:26:51.930Z,55.87
2023-01-20T02:29:28.876Z,56.55
2023-01-20T02:31:59.680Z,56.91
2023-01-20T02:34:04.489Z,57.08
2023-01-20T02:36:09.563Z,57.10
2023-01-20T02:38:16.284Z,57.17
2023-01-20T02:40:30.176Z,57.45
2023-01-20T02:42:37.493Z,57.48
2023-01-20T02:44:42.912Z,56.85
2023-01-20T02:46:52.089Z,56.38
2023-01-20T02:48:59.056Z,56.29
2023-01-20T02:51:05.329Z,57.09
2023-01-20T02:53:09.912Z,57.06
2023-01-20T02:55:15.831Z,56.98
2023-01-20T02:57:23.568Z,57.27
2023-01-20T02:59:30.781Z,57.11
2023-01-20T03:01:36.291Z,57.32
2023-01-20T03:03:43.890Z,57.10
2023-01-20T03:05:52.158Z,56.99
2023-01-20T03:07:55.059Z,57.27
2023-01-20T03:10:01.299Z,57.28
2023-01-20T03:12:09.557Z,56.96
2023-01-20T03:14:14.203Z,57.15
2023-01-20T03:16:19.062Z,56.94
2023-01-20T03:18:20.651Z,57.23
2023-01-20T03:20:23.817Z,57.71
2023-01-20T03:22:25.513Z,56.88
2023-01-20T03:24:29.234Z,57.19
2023-01-20T03:26:31.737Z,57.16
2023-01-20T03:28:33.246Z,56.99
2023-01-20T03:30:34.971Z,57.17
2023-01-20T03:32:36.644Z,56.88
2023-01-20T03:34:41.540Z,57.21
2023-01-20T03:36:46.018Z,56.79
2023-01-20T03:38:48.737Z,56.86
2023-01-20T03:41:10.846Z,56.97
2023-01-20T03:43:20.541Z,57.20
2023-01-20T03:45:29.986Z,57.14
2023-01-20T03:47:47.768Z,57.22
2023-01-20T03:49:54.576Z,57.48
2023-01-20T03:52:03.377Z,58.11
2023-01-20T03:54:09.041Z,58.28
2023-01-20T03:56:16.977Z,57.20
2023-01-20T03:58:22.314Z,57.24
2023-01-20T04:00:29.751Z,56.96
2023-01-20T04:02:33.489Z,57.46
2023-01-20T04:04:38.089Z,57.47
2023-01-20T04:06:42.476Z,57.34
2023-01-20T04:08:50.538Z,57.27
2023-01-20T04:10:54.178Z,57.05
2023-01-20T04:12:55.720Z,56.99
2023-01-20T04:14:57.529Z,57.66
2023-01-20T04:16:59.356Z,57.33
2023-01-20T04:19:00.930Z,57.59
2023-01-20T04:21:03.484Z,57.65
2023-01-20T04:23:06.544Z,58.07
2023-01-20T04:25:14.937Z,57.99
2023-01-20T04:27:16.670Z,58.56
2023-01-20T04:29:18.260Z,57.84
2023-01-20T04:31:30.232Z,57.53
2023-01-20T04:33:32.274Z,57.63
2023-01-20T04:35:33.876Z,57.73
2023-01-20T04:37:35.446Z,57.69
2023-01-20T04:39:36.994Z,57.73
2023-01-20T04:41:39.992Z,57.76
2023-01-20T04:43:43.439Z,57.59
2023-01-20T04:45:45.017Z,57.68
2023-01-20T04:47:46.556Z,57.95
2023-01-20T04:49:48.143Z,58.09
2023-01-20T04:51:49.659Z,58.23
2023-01-20T04:53:51.280Z,58.56
2023-01-20T04:55:52.863Z,58.31
2023-01-20T04:57:55.888Z,57.58
2023-01-20T04:59:57.426Z,58.33
2023-01-20T05:01:59.061Z,57.98
2023-01-20T05:04:00.743Z,57.70
2023-01-20T05:06:02.285Z,57.69
2023-01-20T05:08:03.935Z,57.82
2023-01-20T05:10:06.849Z,57.56
2023-01-20T05:12:08.481Z,57.68
2023-01-20T05:14:12.315Z,57.66
2023-01-20T05:16:13.925Z,57.81
2023-01-20T05:18:15.880Z,58.42
2023-01-20T05:20:17.527Z,57.74
2023-01-20T05:22:19.090Z,57.95
2023-01-20T05:24:20.826Z,57.82
2023-01-20T05:26:23.010Z,58.27
2023-01-20T05:28:24.527Z,57.77
2023-01-20T05:30:27.575Z,57.81
2023-01-20T05:32:29.274Z,58.31
2023-01-20T05:34:30.846Z,58.38
2023-01-20T05:36:32.425Z,58.17
2023-01-20T05:38:33.989Z,58.05
2023-01-20T05:40:35.559Z,57.89
2023-01-20T05:42:37.137Z,58.02
2023-01-20T05:44:38.653Z,58.24
2023-01-20T05:46:41.835Z,57.99
2023-01-20T05:48:47.878Z,58.12
2023-01-20T05:50:49.553Z,57.85
2023-01-20T05:52:51.356Z,57.83
2023-01-20T05:54:52.900Z,58.02
2023-01-20T05:56:54.464Z,57.79
2023-01-20T05:58:56.276Z,57.99
2023-01-20T06:01:04.599Z,57.90
2023-01-20T06:03:07.597Z,57.37
2023-01-20T06:05:09.533Z,57.94
2023-01-20T06:07:11.117Z,58.03
2023-01-20T06:09:12.655Z,58.26
2023-01-20T06:11:14.207Z,58.23
2023-01-20T06:13:16.003Z,58.33
2023-01-20T06:15:17.537Z,58.61
2023-01-20T06:17:19.667Z,58.32
2023-01-20T06:19:22.715Z,58.32
2023-01-20T06:21:24.251Z,58.33
2023-01-20T06:23:25.997Z,58.48
2023-01-20T06:25:27.559Z,58.35
2023-01-20T06:27:29.130Z,58.23
2023-01-20T06:29:30.728Z,57.99
2023-01-20T06:31:32.366Z,58.21
2023-01-20T06:33:34.748Z,58.16
2023-01-20T06:35:37.900Z,57.83
2023-01-20T06:37:39.425Z,58.06
2023-01-20T06:39:40.968Z,58.21
2023-01-20T06:41:42.486Z,58.25
2023-01-20T06:43:44.501Z,58.33
2023-01-20T06:45:46.006Z,58.38
2023-01-20T06:47:48.685Z,58.12
2023-01-20T06:49:50.363Z,58.05
2023-01-20T06:51:53.266Z,57.95
2023-01-20T06:53:55.205Z,57.46
2023-01-20T06:55:58.198Z,57.34
2023-01-20T06:57:59.749Z,57.80
2023-01-20T07:00:01.351Z,57.68
2023-01-20T07:02:03.012Z,57.36
2023-01-20T07:04:05.215Z,57.22
2023-01-20T07:06:15.436Z,57.18
2023-01-20T07:08:18.326Z,57.15
2023-01-20T07:10:19.871Z,57.13
2023-01-20T07:12:21.341Z,57.12
2023-01-20T07:14:22.888Z,56.70
2023-01-20T07:16:24.528Z,56.59
2023-01-20T07:18:26.156Z,56.49
2023-01-20T07:20:27.744Z,56.45
2023-01-20T07:22:29.329Z,56.48
2023-01-20T07:24:32.275Z,56.80
2023-01-20T07:26:36.824Z,56.47
2023-01-20T07:28:38.514Z,56.63
2023-01-20T07:30:40.143Z,57.13
2023-01-20T07:32:41.700Z,57.12
2023-01-20T07:34:43.251Z,56.76
2023-01-20T07:36:44.788Z,57.12
2023-01-20T07:38:47.329Z,56.66
2023-01-20T07:40:50.321Z,57.12
2023-01-20T07:42:52.051Z,56.85
2023-01-20T07:44:53.662Z,57.28
2023-01-20T07:46:55.245Z,57.14
2023-01-20T07:48:56.768Z,57.33
2023-01-20T07:50:59.692Z,57.16
2023-01-20T07:53:01.434Z,57.63
2023-01-20T07:55:03.188Z,57.34
2023-01-20T07:57:06.144Z,57.19
2023-01-20T07:59:07.637Z,57.16
2023-01-20T08:01:10.983Z,57.12
2023-01-20T08:03:12.598Z,57.35
2023-01-20T08:05:14.488Z,57.21
2023-01-20T08:07:16.180Z,57.36
2023-01-20T08:09:17.702Z,57.18
2023-01-20T08:11:20.529Z,57.21
2023-01-20T08:13:23.469Z,57.12
2023-01-20T08:15:25.311Z,57.05
2023-01-20T08:17:26.968Z,57.48
2023-01-20T08:19:28.907Z,57.04
2023-01-20T08:21:33.953Z,56.94
2023-01-20T08:23:36.177Z,56.85
2023-01-20T08:25:37.744Z,56.64
2023-01-20T08:27:39.329Z,56.61
2023-01-20T08:29:42.331Z,56.28
2023-01-20T08:31:43.988Z,56.02
2023-01-20T08:33:46.667Z,56.11
2023-01-20T08:35:48.247Z,55.90
2023-01-20T08:37:49.885Z,55.79
2023-01-20T08:39:51.970Z,55.76
2023-01-20T08:41:53.710Z,55.59
2023-01-20T08:43:55.537Z,55.32
2023-01-20T08:46:05.990Z,55.16
2023-01-20T08:48:07.514Z,54.81
2023-01-20T08:50:10.543Z,54.95
2023-01-20T08:52:12.352Z,54.63
2023-01-20T08:54:14.592Z,54.83
2023-01-20T08:56:17.132Z,55.16
2023-01-20T08:58:18.699Z,54.94
2023-01-20T09:00:21.054Z,55.33
2023-01-20T09:02:23.994Z,55.40
2023-01-20T09:04:25.586Z,55.69
2023-01-20T09:06:27.106Z,55.48
2023-01-20T09:08:28.637Z,55.76
2023-01-20T09:10:32.105Z,55.76
2023-01-20T09:12:33.647Z,55.59
2023-01-20T09:14:35.306Z,55.63
2023-01-20T09:16:36.993Z,55.80
2023-01-20T09:18:40.246Z,56.21
2023-01-20T09:20:41.811Z,55.95
2023-01-20T09:22:43.644Z,55.91
2023-01-20T09:24:45.242Z,56.00
2023-01-20T09:26:47.842Z,55.88
2023-01-20T09:28:49.541Z,55.92
2023-01-20T09:30:56.955Z,56.16
2023-01-20T09:32:58.577Z,56.16
2023-01-20T09:35:01.748Z,55.63
2023-01-20T09:37:03.421Z,55.77
2023-01-20T09:39:04.960Z,55.81
2023-01-20T09:41:16.883Z,55.82
2023-01-20T09:43:30.841Z,55.65
2023-01-20T09:45:37.829Z,55.49
2023-01-20T09:47:43.447Z,55.77
2023-01-20T09:50:01.197Z,55.85
2023-01-20T09:52:13.343Z,55.66
2023-01-20T09:54:18.791Z,55.82
2023-01-20T09:56:24.911Z,55.74
2023-01-20T09:58:33.035Z,55.74
2023-01-20T10:00:36.991Z,55.51
2023-01-20T10:02:41.169Z,55.53
2023-01-20T10:04:47.310Z,54.51
2023-01-20T10:06:52.294Z,54.50
2023-01-20T10:09:06.059Z,54.47
2023-01-20T10:11:12.632Z,54.73
2023-01-20T10:13:20.127Z,54.02
2023-01-20T10:15:26.447Z,53.94
2023-01-20T10:17:33.801Z,53.74
2023-01-20T10:19:39.299Z,54.22
2023-01-20T10:21:45.562Z,54.01
2023-01-20T10:23:52.848Z,54.36
2023-01-20T10:25:59.544Z,54.02
2023-01-20T10:28:09.103Z,54.07
2023-01-20T10:30:13.338Z,53.59
2023-01-20T10:32:24.777Z,54.14
2023-01-20T10:34:33.850Z,53.60
2023-01-20T10:36:36.400Z,53.62
2023-01-20T10:38:50.187Z,53.60
2023-01-20T10:40:57.225Z,53.82
2023-01-20T10:43:09.469Z,53.94
2023-01-20T10:45:19.798Z,53.72
2023-01-20T10:47:30.934Z,53.69
2023-01-20T10:49:53.121Z,53.16
2023-01-20T10:52:09.122Z,53.15
2023-01-20T10:54:22.799Z,52.72
2023-01-20T10:56:42.667Z,52.47
2023-01-20T10:58:45.623Z,52.91
2023-01-20T11:00:47.394Z,52.44
2023-01-20T11:02:49.257Z,52.86
2023-01-20T11:04:55.435Z,53.13
2023-01-20T11:07:00.673Z,53.01
2023-01-20T11:09:20.039Z,52.78
2023-01-20T11:11:24.171Z,52.72
2023-01-20T11:13:26.166Z,52.59
2023-01-20T11:15:31.408Z,53.10
2023-01-20T11:17:33.024Z,53.04
2023-01-20T11:19:52.358Z,52.96
2023-01-20T11:21:54.056Z,52.91
2023-01-20T11:23:57.139Z,52.91
2023-01-20T11:26:00.756Z,52.76
2023-01-20T11:28:02.478Z,52.26
2023-01-20T11:30:08.104Z,52.96
2023-01-20T11:32:29.977Z,52.70
2023-01-20T11:34:33.409Z,53.07
2023-01-20T11:36:35.011Z,52.57
2023-01-20T11:38:42.827Z,52.71
2023-01-20T11:40:52.445Z,53.32
2023-01-20T11:42:54.749Z,52.99
2023-01-20T11:45:05.694Z,52.64
2023-01-20T11:47:25.654Z,52.37
2023-01-20T11:49:28.705Z,52.24
2023-01-20T11:51:30.389Z,51.97
2023-01-20T11:53:33.603Z,51.65
2023-01-20T11:55:48.327Z,51.31
2023-01-20T11:57:54.196Z,51.50
2023-01-20T11:59:55.793Z,50.54
2023-01-20T12:01:59.935Z,50.96
2023-01-20T12:04:23.381Z,49.96
2023-01-20T12:06:29.062Z,50.94
2023-01-20T12:08:40.295Z,50.24
2023-01-20T12:10:43.354Z,50.34
2023-01-20T12:12:50.320Z,49.92
2023-01-20T12:14:56.057Z,50.09
2023-01-20T12:17:15.071Z,50.44
2023-01-20T12:19:20.848Z,50.13
2023-01-20T12:21:31.849Z,49.50
2023-01-20T12:23:39.900Z,49.71
2023-01-20T12:25:48.875Z,49.72
2023-01-20T12:27:56.438Z,49.50
2023-01-20T12:30:03.530Z,49.40
2023-01-20T12:32:05.526Z,49.57
2023-01-20T12:34:12.892Z,48.84
2023-01-20T12:36:50.454Z,48.27
2023-01-20T12:39:04.987Z,47.47
2023-01-20T12:41:14.832Z,48.23
2023-01-20T12:43:33.561Z,48.32
2023-01-20T12:45:49.254Z,47.57
2023-01-20T12:48:04.058Z,48.04
2023-01-20T12:50:19.929Z,47.22
2023-01-20T12:52:45.150Z,46.55
2023-01-20T12:54:58.495Z,47.06
2023-01-20T12:57:08.376Z,47.06
2023-01-20T12:59:22.629Z,46.84
2023-01-20T13:01:42.778Z,47.08
2023-01-20T13:04:11.390Z,46.82
2023-01-20T13:06:45.781Z,47.51
2023-01-20T13:08:56.063Z,48.32
2023-01-20T13:11:10.643Z,46.91
2023-01-20T13:13:23.525Z,46.67
2023-01-20T13:15:32.816Z,46.61
2023-01-20T13:17:42.552Z,47.47
2023-01-20T13:19:44.863Z,47.72
2023-01-20T13:22:06.530Z,48.24
2023-01-20T13:24:17.286Z,47.93
2023-01-20T13:26:19.380Z,49.03
2023-01-20T13:28:23.756Z,48.61
2023-01-20T13:30:40.626Z,48.21
2023-01-20T13:32:44.874Z,48.67
2023-01-20T13:34:46.506Z,48.81
2023-01-20T13:37:23.940Z,48.82
2023-01-20T13:39:42.390Z,48.63
2023-01-20T13:41:48.902Z,48.61
2023-01-20T13:43:50.510Z,49.34
2023-01-20T13:46:32.571Z,48.97
2023-01-20T13:48:36.659Z,49.58
2023-01-20T13:50:39.690Z,48.68
2023-01-20T13:53:24.081Z,48.82
2023-01-20T13:55:28.218Z,50.15
2023-01-20T13:57:38.560Z,48.35
2023-01-20T13:59:40.133Z,49.49
2023-01-20T14:01:41.702Z,50.20
2023-01-20T14:04:00.261Z,50.50
2023-01-20T14:06:03.493Z,49.40
2023-01-20T14:08:13.727Z,50.03
2023-01-20T14:10:15.718Z,49.57
2023-01-20T14:12:17.455Z,49.79
2023-01-20T14:14:21.140Z,49.40
2023-01-20T14:16:26.839Z,50.00
2023-01-20T14:18:28.888Z,49.64
2023-01-20T14:20:32.613Z,50.62
2023-01-20T14:22:34.241Z,51.50
2023-01-20T14:24:38.145Z,51.93
2023-01-20T14:26:39.758Z,51.86
2023-01-20T14:28:47.145Z,52.19
2023-01-20T14:30:50.803Z,51.94
2023-01-20T14:32:54.053Z,52.43
2023-01-20T14:34:56.932Z,52.23
2023-01-20T14:37:27.595Z,52.07
2023-01-20T14:39:30.141Z,52.38
2023-01-20T14:41:35.353Z,52.63
2023-01-20T14:43:36.949Z,52.37
2023-01-20T14:45:43.333Z,52.14
2023-01-20T14:47:45.128Z,52.07
2023-01-20T14:49:49.170Z,51.69
2023-01-20T14:51:52.691Z,51.40
2023-01-20T14:54:36.292Z,52.10
2023-01-20T14:56:38.321Z,52.51
2023-01-20T14:58:45.471Z,52.81
2023-01-20T15:00:48.437Z,53.07
2023-01-20T15:03:05.364Z,53.54
2023-01-20T15:05:23.854Z,53.99
2023-01-20T15:07:26.548Z,54.79
2023-01-20T15:09:30.299Z,54.76
2023-01-20T15:11:34.135Z,54.63
2023-01-20T15:13:37.778Z,54.55
2023-01-20T15:15:39.603Z,54.13
2023-01-20T15:18:21.004Z,54.20
2023-01-20T15:20:28.754Z,54.05
2023-01-20T15:22:30.599Z,54.13
2023-01-20T15:24:36.269Z,54.17
2023-01-20T15:26:39.648Z,53.90
2023-01-20T15:28:42.965Z,54.50
2023-01-20T15:30:44.540Z,55.07
2023-01-20T15:32:47.307Z,55.16
2023-01-20T15:34:48.963Z,55.07
2023-01-20T15:36:52.097Z,55.10
2023-01-20T15:38:54.078Z,55.44
2023-01-20T15:40:55.909Z,55.32
2023-01-20T15:42:58.866Z,55.38
2023-01-20T15:45:00.466Z,55.11
2023-01-20T15:47:02.468Z,55.45
2023-01-20T15:49:04.069Z,55.23
2023-01-20T15:51:06.106Z,55.30
2023-01-20T15:53:12.572Z,55.22
2023-01-20T15:55:15.859Z,55.10
2023-01-20T15:57:18.071Z,55.46
2023-01-20T15:59:21.341Z,54.99
2023-01-20T16:01:24.706Z,55.09
2023-01-20T16:03:27.785Z,55.08
2023-01-20T16:05:29.386Z,54.76
2023-01-20T16:07:30.933Z,54.86
2023-01-20T16:09:32.491Z,54.85
2023-01-20T16:11:34.119Z,54.61
2023-01-20T16:13:35.709Z,54.79
2023-01-20T16:15:39.567Z,54.63
2023-01-20T16:17:41.489Z,54.47
2023-01-20T16:19:43.183Z,54.67
2023-01-20T16:21:45.762Z,54.85
2023-01-20T16:23:47.465Z,55.04
2023-01-20T16:25:49.051Z,55.14
2023-01-20T16:27:50.937Z,54.87
2023-01-20T16:29:53.849Z,54.84
2023-01-20T16:31:56.802Z,54.71
2023-01-20T16:33:58.428Z,54.52
2023-01-20T16:36:00.211Z,54.65
2023-01-20T16:38:04.124Z,54.57
2023-01-20T16:40:06.950Z,54.45
2023-01-20T16:42:10.345Z,54.35
2023-01-20T16:44:11.945Z,54.35
2023-01-20T16:46:14.839Z,54.40
2023-01-20T16:48:22.909Z,54.37
2023-01-20T16:50:24.602Z,54.36
2023-01-20T16:52:26.212Z,54.40
2023-01-20T16:54:27.865Z,54.41
2023-01-20T16:56:31.502Z,54.28
2023-01-20T16:58:33.056Z,54.15
2023-01-20T17:00:34.713Z,54.27
2023-01-20T17:02:36.455Z,54.37
2023-01-20T17:04:39.315Z,54.31
2023-01-20T17:06:40.961Z,54.04
2023-01-20T17:08:44.820Z,54.18
2023-01-20T17:10:47.255Z,54.12
2023-01-20T17:12:49.155Z,54.14
2023-01-20T17:14:50.916Z,54.04
2023-01-20T17:16:52.535Z,54.17
2023-01-20T17:18:55.655Z,54.34
2023-01-20T17:21:03.810Z,53.79
2023-01-20T17:23:05.424Z,54.31
2023-01-20T17:25:09.631Z,54.23
2023-01-20T17:27:11.245Z,55.02
2023-01-20T17:29:13.207Z,55.28
2023-01-20T17:31:17.952Z,56.21
2023-01-20T17:33:19.642Z,56.63
2023-01-20T17:35:21.363Z,56.90
2023-01-20T17:37:24.419Z,57.39
2023-01-20T17:39:26.279Z,57.40
2023-01-20T17:41:28.570Z,57.30
2023-01-20T17:43:34.145Z,57.20
2023-01-20T17:45:35.834Z,57.23
2023-01-20T17:47:37.490Z,57.11
2023-01-20T17:49:39.086Z,57.09
2023-01-20T17:51:40.648Z,56.91
2023-01-20T17:53:43.992Z,56.82
2023-01-20T17:55:45.829Z,57.20
2023-01-20T17:57:49.947Z,57.08
2023-01-20T17:59:51.648Z,57.56
2023-01-20T18:01:53.416Z,57.64
2023-01-20T18:03:56.781Z,57.77
2023-01-20T18:05:58.323Z,57.64
2023-01-20T18:07:59.870Z,57.61
2023-01-20T18:10:02.897Z,57.88
2023-01-20T18:12:05.058Z,57.53
2023-01-20T18:14:07.449Z,57.96
2023-01-20T18:16:10.773Z,58.02
2023-01-20T18:18:12.363Z,58.11
2023-01-20T18:20:14.542Z,58.24
2023-01-20T18:22:16.302Z,58.73
2023-01-20T18:24:17.944Z,58.69
2023-01-20T18:26:25.769Z,58.68
2023-01-20T18:28:27.481Z,58.70
2023-01-20T18:30:29.113Z,58.65
2023-01-20T18:32:30.721Z,58.86
2023-01-20T18:34:32.621Z,58.93
2023-01-20T18:36:36.366Z,58.86
2023-01-20T18:38:38.113Z,59.01
2023-01-20T18:40:40.590Z,59.07
2023-01-20T18:42:43.510Z,58.98
2023-01-20T18:44:45.171Z,58.93
2023-01-20T18:46:46.784Z,58.94
2023-01-20T18:48:48.569Z,58.76
2023-01-20T18:50:50.164Z,58.95
2023-01-20T18:52:51.757Z,58.75
2023-01-20T18:54:53.321Z,58.92
2023-01-20T18:56:54.931Z,59.13
2023-01-20T18:58:57.882Z,59.07
2023-01-20T19:01:03.726Z,58.96
2023-01-20T19:03:05.373Z,58.91
2023-01-20T19:05:07.819Z,59.32
2023-01-20T19:07:09.431Z,59.57
2023-01-20T19:09:11.840Z,59.75
2023-01-20T19:11:15.436Z,60.11
2023-01-20T19:13:17.019Z,60.32
2023-01-20T19:15:20.216Z,60.25
2023-01-20T19:17:21.823Z,60.60
2023-01-20T19:19:23.608Z,60.64
2023-01-20T19:21:26.096Z,60.69
2023-01-20T19:23:27.658Z,60.88
2023-01-20T19:25:29.269Z,61.11
2023-01-20T19:27:31.537Z,60.95
2023-01-20T19:29:33.130Z,61.03
2023-01-20T19:31:37.552Z,61.07
2023-01-20T19:33:39.730Z,60.88
2023-01-20T19:35:42.183Z,61.54
2023-01-20T19:37:43.827Z,61.88
2023-01-20T19:39:45.396Z,62.21
2023-01-20T19:41:46.925Z,62.28
2023-01-20T19:43:52.714Z,62.72
2023-01-20T19:45:54.377Z,62.46
2023-01-20T19:47:57.329Z,62.82
2023-01-20T19:49:58.887Z,62.78
2023-01-20T19:52:00.504Z,62.76
2023-01-20T19:54:02.441Z,62.79
2023-01-20T19:56:05.382Z,62.85
2023-01-20T19:58:07.016Z,63.30
2023-01-20T20:00:09.947Z,63.30
2023-01-20T20:02:11.517Z,63.43
2023-01-20T20:04:14.541Z,63.18
2023-01-20T20:06:25.324Z,63.18
2023-01-20T20:08:26.865Z,63.11
2023-01-20T20:10:28.471Z,63.36
2023-01-20T20:12:30.004Z,63.13
2023-01-20T20:14:33.021Z,63.10
2023-01-20T20:16:36.881Z,63.07
2023-01-20T20:18:38.456Z,63.19
2023-01-20T20:20:41.400Z,63.01
2023-01-20T20:22:42.986Z,63.01
2023-01-20T20:24:44.547Z,62.81
2023-01-20T20:26:47.195Z,62.65
2023-01-20T20:28:49.655Z,62.29
2023-01-20T20:30:51.954Z,62.48
2023-01-20T20:32:56.674Z,62.69
2023-01-20T20:34:58.396Z,62.76
2023-01-20T20:37:01.349Z,62.53
2023-01-20T20:39:04.236Z,62.45
2023-01-20T20:41:07.983Z,62.73
2023-01-20T20:43:09.888Z,62.83
2023-01-20T20:45:11.911Z,62.67
2023-01-20T20:47:16.664Z,62.48
2023-01-20T20:49:18.318Z,62.27
2023-01-20T20:51:23.142Z,62.54
2023-01-20T20:53:26.230Z,62.17
2023-01-20T20:55:27.817Z,62.12
2023-01-20T20:57:29.386Z,62.46
2023-01-20T20:59:31.186Z,62.36
2023-01-20T21:01:34.262Z,62.47
2023-01-20T21:03:35.973Z,62.72
2023-01-20T21:05:37.733Z,62.24
2023-01-20T21:07:39.497Z,62.49
2023-01-20T21:09:42.472Z,62.36
2023-01-20T21:11:44.075Z,62.50
2023-01-20T21:13:45.739Z,62.57
2023-01-20T21:15:55.121Z,62.49
2023-01-20T21:17:56.740Z,62.58
2023-01-20T21:19:58.291Z,62.84
2023-01-20T21:21:59.881Z,62.52
2023-01-20T21:24:01.794Z,62.76
2023-01-20T21:26:06.523Z,62.21
2023-01-20T21:28:08.118Z,62.26
2023-01-20T21:30:11.025Z,62.39
2023-01-20T21:32:12.776Z,62.17
2023-01-20T21:34:15.063Z,62.19
2023-01-20T21:36:17.102Z,62.37
2023-01-20T21:38:18.740Z,62.29
2023-01-20T21:40:20.316Z,62.41
2023-01-20T21:42:23.318Z,62.15
2023-01-20T21:44:24.960Z,62.40
2023-01-20T21:46:28.711Z,62.36
2023-01-20T21:48:30.477Z,62.28
2023-01-20T21:50:32.008Z,62.52
2023-01-20T21:52:33.580Z,62.41
2023-01-20T21:54:35.174Z,62.42
2023-01-20T21:56:36.851Z,62.53
2023-01-20T21:58:39.786Z,63.16
2023-01-20T22:00:41.388Z,63.21
2023-01-20T22:02:44.201Z,63.43
2023-01-20T22:04:46.451Z,63.66
2023-01-20T22:06:48.110Z,62.65
2023-01-20T22:08:49.698Z,62.59
2023-01-20T22:10:55.413Z,62.67
2023-01-20T22:12:57.039Z,62.57
2023-01-20T22:15:00.059Z,62.39
2023-01-20T22:17:01.866Z,62.72
2023-01-20T22:19:03.785Z,62.24
2023-01-20T22:21:07.137Z,62.40
2023-01-20T22:23:08.952Z,62.14
2023-01-20T22:25:10.555Z,62.03
2023-01-20T22:27:12.196Z,61.29
2023-01-20T22:29:13.901Z,62.54
2023-01-20T22:31:19.148Z,63.07
2023-01-20T22:33:20.718Z,63.05
2023-01-20T22:35:22.304Z,63.42
2023-01-20T22:37:23.951Z,63.23
2023-01-20T22:39:25.610Z,64.46
2023-01-20T22:41:27.175Z,63.54
2023-01-20T22:43:28.731Z,63.63
2023-01-20T22:45:30.297Z,63.62
2023-01-20T22:47:33.268Z,63.92
2023-01-20T22:49:34.951Z,63.73
2023-01-20T22:51:36.517Z,63.82
2023-01-20T22:53:38.790Z,63.72
2023-01-20T22:55:52.352Z,63.31
2023-01-20T22:58:01.711Z,63.50
2023-01-20T23:00:05.082Z,63.68
2023-01-20T23:02:07.244Z,63.77
2023-01-20T23:04:10.655Z,63.70
2023-01-20T23:06:13.025Z,63.39
2023-01-20T23:08:14.699Z,63.50
2023-01-20T23:10:17.191Z,63.56
2023-01-20T23:12:18.916Z,63.63
2023-01-20T23:14:20.642Z,63.72
2023-01-20T23:16:22.853Z,63.40
2023-01-20T23:18:25.110Z,63.61
2023-01-20T23:20:28.150Z,63.62
2023-01-20T23:22:29.750Z,63.96
2023-01-20T23:24:31.333Z,64.06
2023-01-20T23:26:32.938Z,63.99
2023-01-20T23:28:34.485Z,63.69
2023-01-20T23:30:36.063Z,63.84
2023-01-20T23:32:37.764Z,63.77
2023-01-20T23:34:39.297Z,63.74
2023-01-20T23:36:42.199Z,63.63
2023-01-20T23:38:44.596Z,63.58
2023-01-20T23:40:47.907Z,63.26
2023-01-20T23:42:50.492Z,63.46
2023-01-20T23:44:52.024Z,62.86
2023-01-20T23:46:53.586Z,62.92
2023-01-20T23:48:55.073Z,63.30
2023-01-20T23:50:56.947Z,63.24
2023-01-20T23:52:59.835Z,63.27
2023-01-20T23:55:01.397Z,62.96
2023-01-20T23:57:03.097Z,63.22
2023-01-20T23:59:04.630Z,62.84
